Westwood Rainier — C6SI3 — position and weather

sailwx.info

Track history (hours):
 
Tides and Currents Weather Stations Pressure Air Temp Water Temp Dewpoint Dewpoint Depression Visibility Wind Speed Wind Dir Waves Ship Positions

Westwood Rainier

Last reported at 2014-Oct-30 07:33 UTC. Time now 2014-Oct-30 13:53 UTC.
Position N 35°37' E 139°47'.

Type: Cargo ship. MMSI: 311348993.

Date/timePositionNaut miles runAvg speedWind from/ knotsBaromVisibWave heightAir tempDewpointWater temp
2014-Oct-30 07:33N 35°37' E 139°47'0 0.0
2014-Oct-29 22:23N 35°37' E 139°47'5 5.6
2014-Oct-29 21:33N 35°34' E 139°52'1010.2
2014-Oct-29 20:33N 35°26' E 139°44'5 4.5
2014-Oct-29 19:33N 35°28' E 139°39'0 0.0
2014-Oct-29 18:33N 35°28' E 139°39'0 0.0
2014-Oct-29 17:33N 35°28' E 139°39'0 0.0
2014-Oct-29 16:33N 35°28' E 139°39'0 0.0
2014-Oct-29 15:33N 35°28' E 139°39'0 0.0
2014-Oct-29 14:33N 35°28' E 139°39'0 0.0
2014-Oct-29 13:33N 35°28' E 139°39'0 0.0
2014-Oct-29 12:33N 35°28' E 139°39'0 0.0
2014-Oct-29 11:33N 35°28' E 139°39'0 0.0
2014-Oct-29 10:33N 35°28' E 139°39'0 0.0
2014-Oct-29 09:33N 35°28' E 139°39'0 0.0
2014-Oct-29 08:33N 35°28' E 139°39'0 0.0
2014-Oct-29 07:33N 35°28' E 139°39'0 0.0
2014-Oct-29 06:33N 35°28' E 139°39'0 0.0
2014-Oct-29 05:30N 35°28' E 139°39'0 0.0
2014-Oct-29 04:33N 35°28' E 139°39'0 0.0
2014-Oct-29 03:33N 35°28' E 139°39'0 0.0
2014-Oct-29 02:33N 35°28' E 139°39'0 0.0
2014-Oct-29 01:33N 35°28' E 139°39'0 0.0
2014-Oct-29 00:33N 35°28' E 139°39'0 0.0
2014-Oct-28 23:33N 35°28' E 139°39'3 3.1
2014-Oct-28 22:33N 35°26' E 139°42'1111.4
2014-Oct-28 21:33N 35°16' E 139°47'9 8.1
2014-Oct-28 20:25N 35°06' E 139°46'  
Track history (hours):
 
Tides and Currents Weather Stations Pressure Air Temp Water Temp Dewpoint Dewpoint Depression Visibility Wind Speed Wind Dir Waves Ship Positions

Westwood Rainier

Last reported at 2014-Oct-30 07:33 UTC. Time now 2014-Oct-30 13:53 UTC.
Position N 35°37' E 139°47'.

Type: Cargo ship. MMSI: 311348993.

Date/timePositionNaut miles runAvg speedWind from/ knotsBaromVisibWave heightAir tempDewpointWater temp
2014-Oct-30 07:33N 35°37' E 139°47'0 0.0
2014-Oct-29 22:23N 35°37' E 139°47'5 5.6
2014-Oct-29 21:33N 35°34' E 139°52'1010.2
2014-Oct-29 20:33N 35°26' E 139°44'5 4.5
2014-Oct-29 19:33N 35°28' E 139°39'0 0.0
2014-Oct-29 18:33N 35°28' E 139°39'0 0.0
2014-Oct-29 17:33N 35°28' E 139°39'0 0.0
2014-Oct-29 16:33N 35°28' E 139°39'0 0.0
2014-Oct-29 15:33N 35°28' E 139°39'0 0.0
2014-Oct-29 14:33N 35°28' E 139°39'0 0.0
2014-Oct-29 13:33N 35°28' E 139°39'0 0.0
2014-Oct-29 12:33N 35°28' E 139°39'0 0.0
2014-Oct-29 11:33N 35°28' E 139°39'0 0.0
2014-Oct-29 10:33N 35°28' E 139°39'0 0.0
2014-Oct-29 09:33N 35°28' E 139°39'0 0.0
2014-Oct-29 08:33N 35°28' E 139°39'0 0.0
2014-Oct-29 07:33N 35°28' E 139°39'0 0.0
2014-Oct-29 06:33N 35°28' E 139°39'0 0.0
2014-Oct-29 05:30N 35°28' E 139°39'0 0.0
2014-Oct-29 04:33N 35°28' E 139°39'0 0.0
2014-Oct-29 03:33N 35°28' E 139°39'0 0.0
2014-Oct-29 02:33N 35°28' E 139°39'0 0.0
2014-Oct-29 01:33N 35°28' E 139°39'0 0.0
2014-Oct-29 00:33N 35°28' E 139°39'0 0.0
2014-Oct-28 23:33N 35°28' E 139°39'3 3.1
2014-Oct-28 22:33N 35°26' E 139°42'1111.4
2014-Oct-28 21:33N 35°16' E 139°47'9 8.1
2014-Oct-28 20:25N 35°06' E 139°46'  

Dump ship's entire track history